No.8 Myoushou Maru — JH3281 — position and weather

sailwx.info

Track history (hours):
 
Tides and Currents Weather Stations Pressure Air Temp Water Temp Dewpoint Dewpoint Depression Visibility Wind Speed Wind Dir Waves Ship Positions

No.8 Myoushou Maru

Last reported at 2018-Jul-20 06:30 UTC. Time now 2018-Jul-20 06:29 UTC.
Position N 35°24' E 139°38'.

Length 71 m; draft 4 m.

Type: Tanker. MMSI: 431000594.

Date/timePositionNaut miles runAvg speedWind from/ knotsBaromVisibWave heightAir tempDewpointWater temp
2018-Jul-20 06:30N 35°24' E 139°38'0 0.0
2018-Jul-20 06:00N 35°24' E 139°38'0 0.0
2018-Jul-20 05:30N 35°24' E 139°38'0 0.0
2018-Jul-20 05:00N 35°24' E 139°38'0 0.1
2018-Jul-20 04:30N 35°24' E 139°38'0 0.3
2018-Jul-20 04:00N 35°24' E 139°38'4 8.8
2018-Jul-20 03:30N 35°23' E 139°43'0 0.5
2018-Jul-20 02:59N 35°24' E 139°44'0 0.2
2018-Jul-20 02:30N 35°23' E 139°44'4 7.0
2018-Jul-20 02:00N 35°24' E 139°40'0 0.0
2018-Jul-20 01:31N 35°24' E 139°40'0 0.0
2018-Jul-20 01:00N 35°24' E 139°40'0 0.0
2018-Jul-20 00:30N 35°24' E 139°40'0 0.0
2018-Jul-20 00:01N 35°24' E 139°40'1 2.5
2018-Jul-19 23:31N 35°24' E 139°41'4 8.7
2018-Jul-19 23:01N 35°26' E 139°45'4 8.7
2018-Jul-19 22:31N 35°29' E 139°49'0 0.2
2018-Jul-19 22:00N 35°29' E 139°49'0 0.0
2018-Jul-19 21:30N 35°29' E 139°49'0 0.1
2018-Jul-19 21:00N 35°29' E 139°49'0 0.0
2018-Jul-19 20:30N 35°29' E 139°49'0 0.0
2018-Jul-19 20:00N 35°29' E 139°49'0 0.0
2018-Jul-19 19:30N 35°29' E 139°49'0 0.0
2018-Jul-19 19:00N 35°29' E 139°49'0 0.0
2018-Jul-19 18:30N 35°29' E 139°49'0 0.0
2018-Jul-19 18:00N 35°29' E 139°49'0 0.1
2018-Jul-19 17:30N 35°29' E 139°49'0 0.0
2018-Jul-19 17:00N 35°29' E 139°49'0 0.0
2018-Jul-19 16:30N 35°29' E 139°49'0 0.0
2018-Jul-19 16:00N 35°29' E 139°49'0 0.0
2018-Jul-19 15:30N 35°29' E 139°49'0 0.0
2018-Jul-19 15:00N 35°29' E 139°49'0 0.0
2018-Jul-19 14:30N 35°29' E 139°49'0 0.0
2018-Jul-19 13:30N 35°29' E 139°49'0 0.0
2018-Jul-19 13:00N 35°29' E 139°49'0 0.0
2018-Jul-19 12:30N 35°29' E 139°49'0 0.0
2018-Jul-19 12:00N 35°29' E 139°49'0 0.1
2018-Jul-19 11:30N 35°29' E 139°49'0 0.1
2018-Jul-19 11:00N 35°29' E 139°49'1 3.0
2018-Jul-19 10:30N 35°30' E 139°48'2 3.2
2018-Jul-19 10:00N 35°31' E 139°46'0 0.0
2018-Jul-19 09:26N 35°31' E 139°46'0 0.0
2018-Jul-19 09:00N 35°31' E 139°46'0 0.0
2018-Jul-19 08:30N 35°31' E 139°46'0 0.0
2018-Jul-19 08:00N 35°31' E 139°46'0 0.0
2018-Jul-19 07:30N 35°31' E 139°46'0 0.0
2018-Jul-19 07:00N 35°31' E 139°46'0 0.0
2018-Jul-19 06:30N 35°31' E 139°46'0 0.0
2018-Jul-19 05:59N 35°31' E 139°46'0 0.0
2018-Jul-19 05:30N 35°31' E 139°46'4 7.1
2018-Jul-19 05:00N 35°27' E 139°45'611.0
2018-Jul-19 04:30N 35°24' E 139°40'1 1.7
2018-Jul-19 04:00N 35°24' E 139°40'0 0.0
2018-Jul-19 03:29N 35°24' E 139°40'0 0.0
2018-Jul-19 03:00N 35°24' E 139°40'0 0.0
2018-Jul-19 02:30N 35°24' E 139°40'0 0.0
2018-Jul-19 02:00N 35°24' E 139°40'0 0.0
2018-Jul-19 01:30N 35°24' E 139°40'1 1.3
2018-Jul-19 01:00N 35°24' E 139°40'4 7.2
2018-Jul-19 00:30N 35°26' E 139°43'3 5.6
2018-Jul-18 23:59N 35°29' E 139°42'0 0.0
2018-Jul-18 23:30N 35°29' E 139°42'0 0.0
2018-Jul-18 23:00N 35°29' E 139°42'0 0.0
2018-Jul-18 22:30N 35°29' E 139°42'0 0.0
2018-Jul-18 22:00N 35°29' E 139°42'0 0.0
2018-Jul-18 21:30N 35°29' E 139°42'0 0.0
2018-Jul-18 20:57N 35°29' E 139°42'0 0.0
2018-Jul-18 20:30N 35°29' E 139°42'0 0.0
2018-Jul-18 20:00N 35°29' E 139°42'0 0.0
2018-Jul-18 19:30N 35°29' E 139°42'0 0.0
2018-Jul-18 19:00N 35°29' E 139°42'0 0.0
2018-Jul-18 18:30N 35°29' E 139°42'0 0.0
2018-Jul-18 18:00N 35°29' E 139°42'0 0.0
2018-Jul-18 17:30N 35°29' E 139°42'0 0.0
2018-Jul-18 17:00N 35°29' E 139°42'0 0.0
2018-Jul-18 16:29N 35°29' E 139°42'0 0.0
2018-Jul-18 16:00N 35°29' E 139°42'0 0.0
2018-Jul-18 15:30N 35°29' E 139°42'0 0.0
2018-Jul-18 14:59N 35°29' E 139°42'0 0.0
2018-Jul-18 14:29N 35°29' E 139°42'0 0.0
2018-Jul-18 13:30N 35°29' E 139°42'0 0.0
2018-Jul-18 13:00N 35°29' E 139°42'0 0.0
2018-Jul-18 12:30N 35°29' E 139°42'0 0.0
2018-Jul-18 12:00N 35°29' E 139°42'0 0.0
2018-Jul-18 11:29N 35°29' E 139°42'0 0.0
2018-Jul-18 10:30N 35°29' E 139°42'0 0.0
2018-Jul-18 09:58N 35°29' E 139°42'0 0.0
2018-Jul-18 09:30N 35°29' E 139°42'0 0.0
2018-Jul-18 09:00N 35°29' E 139°42'0 0.3
2018-Jul-18 08:31N 35°29' E 139°42'4 8.1
2018-Jul-18 08:01N 35°31' E 139°46'0 0.0
2018-Jul-18 07:30N 35°31' E 139°46'0 0.0
2018-Jul-18 07:00N 35°31' E 139°46'0 0.0
2018-Jul-18 06:30N 35°31' E 139°46'0 0.0
2018-Jul-18 06:00N 35°31' E 139°46'0 0.0
2018-Jul-18 05:29N 35°31' E 139°46'0 0.0
2018-Jul-18 04:59N 35°31' E 139°46'0 0.0
2018-Jul-18 04:30N 35°31' E 139°46'0 0.0
2018-Jul-18 04:00N 35°31' E 139°46'0 0.0
2018-Jul-18 03:30N 35°31' E 139°46'0 0.0
2018-Jul-18 03:00N 35°31' E 139°46'3 5.6
2018-Jul-18 02:30N 35°30' E 139°49'1 1.4
2018-Jul-18 01:54N 35°30' E 139°50'0 0.0
2018-Jul-18 01:30N 35°30' E 139°50'2 3.1
2018-Jul-18 01:00N 35°31' E 139°52'7 1.8
2018-Jul-17 21:05N 35°37' E 139°57'110.7
2018-Jul-17 21:00N 35°37' E 139°56'1 0.1
2018-Jul-17 06:36N 35°36' E 139°55'510.9
2018-Jul-17 06:07N 35°32' E 139°51'211.4
2018-Jul-17 05:59N 35°31' E 139°50'3 6.5
2018-Jul-17 05:30N 35°31' E 139°46'0 0.0
2018-Jul-17 05:00N 35°31' E 139°46'0 0.0
2018-Jul-17 04:29N 35°31' E 139°46'0 0.0
2018-Jul-17 04:00N 35°31' E 139°46'0 0.0
2018-Jul-17 03:11N 35°31' E 139°46'0 0.0
2018-Jul-17 02:46N 35°31' E 139°46'0 0.0
2018-Jul-17 02:27N 35°31' E 139°46'0 0.0
2018-Jul-17 02:00N 35°31' E 139°46'3 6.7
2018-Jul-17 01:30N 35°31' E 139°50'611.6
2018-Jul-17 00:59N 35°35' E 139°56'2 0.6
2018-Jul-16 21:23N 35°37' E 139°57'2 0.1
2018-Jul-16 05:13N 35°36' E 139°55'8 2.1
2018-Jul-16 01:13N 35°31' E 140°03'0 0.0
2018-Jul-16 00:58N 35°31' E 140°03'2 1.4
2018-Jul-15 23:50N 35°31' E 140°01'3 8.2
2018-Jul-15 23:26N 35°30' E 139°57'511.9
2018-Jul-15 23:00N 35°28' E 139°51'612.1
2018-Jul-15 22:30N 35°27' E 139°44'3 6.2
2018-Jul-15 22:00N 35°29' E 139°42'0 0.0
2018-Jul-15 21:27N 35°29' E 139°42'0 0.0
2018-Jul-15 21:00N 35°29' E 139°42'0 0.0
2018-Jul-15 20:30N 35°29' E 139°42'0 0.0
2018-Jul-15 20:00N 35°29' E 139°42'0 0.0
2018-Jul-15 19:30N 35°29' E 139°42'0 0.0
2018-Jul-15 19:00N 35°29' E 139°42'0 0.0
2018-Jul-15 18:30N 35°29' E 139°42'0 0.0
2018-Jul-15 18:00N 35°29' E 139°42'0 0.0
2018-Jul-15 17:30N 35°29' E 139°42'0 0.0
2018-Jul-15 17:00N 35°29' E 139°42'0 0.0
2018-Jul-15 16:30N 35°29' E 139°42'0 0.0
2018-Jul-15 16:01N 35°29' E 139°42'0 0.0
2018-Jul-15 15:31N 35°29' E 139°42'0 0.0
2018-Jul-15 15:00N 35°29' E 139°42'0 0.0
2018-Jul-15 14:30N 35°29' E 139°42'0 0.0
2018-Jul-15 14:00N 35°29' E 139°42'0 0.0
2018-Jul-15 13:29N 35°29' E 139°42'0 0.0
2018-Jul-15 13:01N 35°29' E 139°42'0 0.0
2018-Jul-15 12:30N 35°29' E 139°42'0 0.0
2018-Jul-15 12:00N 35°29' E 139°42'0 0.0
2018-Jul-15 11:30N 35°29' E 139°42'0 0.0
2018-Jul-15 11:00N 35°29' E 139°42'0 0.0
2018-Jul-15 10:29N 35°29' E 139°42'0 0.0
2018-Jul-15 10:01N 35°29' E 139°42'0 0.0
2018-Jul-15 09:30N 35°29' E 139°42'0 0.0
2018-Jul-15 09:00N 35°29' E 139°42'0 0.0
2018-Jul-15 08:29N 35°29' E 139°42'0 0.0
2018-Jul-15 08:00N 35°29' E 139°42'0 0.0
2018-Jul-15 07:30N 35°29' E 139°42'0 0.0
2018-Jul-15 07:01N 35°29' E 139°42'0 0.0
2018-Jul-15 06:30N 35°29' E 139°42'0 0.0
2018-Jul-15 06:00N 35°29' E 139°42'0 0.0
2018-Jul-15 05:29N 35°29' E 139°42'0 0.0
2018-Jul-15 05:00N 35°29' E 139°42'0 0.0
2018-Jul-15 04:30N 35°29' E 139°42'0 0.0
2018-Jul-15 04:01N 35°29' E 139°42'0 0.0
2018-Jul-15 03:30N 35°29' E 139°42'0 0.0
2018-Jul-15 02:57N 35°29' E 139°42'0 0.0
2018-Jul-15 02:30N 35°29' E 139°42'2 4.6
2018-Jul-15 02:00N 35°27' E 139°43'612.5
2018-Jul-15 01:29N 35°31' E 139°49'612.2
2018-Jul-15 00:59N 35°36' E 139°55'2 0.6
2018-Jul-14 21:31N 35°37' E 139°57'010.6
2018-Jul-14 21:29N 35°37' E 139°56'3 0.3
2018-Jul-14 08:54N 35°34' E 139°53'411.0
2018-Jul-14 08:30N 35°31' E 139°50'3 6.2
2018-Jul-14 08:00N 35°31' E 139°46'0 0.0
2018-Jul-14 07:30N 35°31' E 139°46'0 0.0
2018-Jul-14 07:00N 35°31' E 139°46'0 0.1
2018-Jul-14 06:30N 35°31' E 139°46'0 0.0
2018-Jul-14 06:00N 35°31' E 139°46'0 0.1
2018-Jul-14 05:30N 35°31' E 139°46'0 0.1
2018-Jul-14 05:00N 35°31' E 139°46'2 3.6
2018-Jul-14 04:30N 35°30' E 139°48'611.9
2018-Jul-14 04:00N 35°33' E 139°54'2 0.3
2018-Jul-13 22:53N 35°32' E 139°53'4 9.9
2018-Jul-13 22:30N 35°30' E 139°49'510.6
2018-Jul-13 22:00N 35°27' E 139°44'3 6.3
2018-Jul-13 21:30N 35°29' E 139°42'0 0.1
2018-Jul-13 21:00N 35°29' E 139°42'0 0.0
2018-Jul-13 20:29N 35°29' E 139°42'0 0.0
2018-Jul-13 19:56N 35°29' E 139°42'0 0.0
2018-Jul-13 19:26N 35°29' E 139°42'0 0.0
2018-Jul-13 19:00N 35°29' E 139°42'0 0.0
2018-Jul-13 18:30N 35°29' E 139°42'0 0.0
2018-Jul-13 18:00N 35°29' E 139°42'0 0.0
2018-Jul-13 17:30N 35°29' E 139°42'0 0.0
2018-Jul-13 17:00N 35°29' E 139°42'0 0.0
2018-Jul-13 16:27N 35°29' E 139°42'0 0.0
2018-Jul-13 16:00N 35°29' E 139°42'0 0.0
2018-Jul-13 15:28N 35°29' E 139°42'0 0.0
2018-Jul-13 14:59N 35°29' E 139°42'0 0.0
2018-Jul-13 14:00N 35°29' E 139°42'0 0.0
2018-Jul-13 13:30N 35°29' E 139°42'0 0.0
2018-Jul-13 13:00N 35°29' E 139°42'0 0.0
2018-Jul-13 12:28N 35°29' E 139°42'0 0.0
2018-Jul-13 12:00N 35°29' E 139°42'0 0.0
2018-Jul-13 11:29N 35°29' E 139°42'0 0.0
2018-Jul-13 11:00N 35°29' E 139°42'0 0.0
2018-Jul-13 10:30N 35°29' E 139°42'0 0.0
2018-Jul-13 09:58N 35°29' E 139°42'0 0.0
2018-Jul-13 09:29N 35°29' E 139°42'0 0.0
2018-Jul-13 08:59N 35°29' E 139°42'0 0.0
2018-Jul-13 08:29N 35°29' E 139°42'0 0.0
2018-Jul-13 07:52N 35°29' E 139°42'0 0.0
2018-Jul-13 07:30N 35°29' E 139°42'0 0.0
2018-Jul-13 07:00N 35°29' E 139°42'0 0.0
2018-Jul-13 06:30N 35°29' E 139°42'1 2.9
2018-Jul-13 06:00N 35°28' E 139°42'4 8.7
2018-Jul-13 05:30N 35°24' E 139°40'2 4.0
2018-Jul-13 05:00N 35°24' E 139°38'0 0.0
2018-Jul-13 04:30N 35°24' E 139°38'0 0.0
2018-Jul-13 04:00N 35°24' E 139°38'0 0.0
2018-Jul-13 03:30N 35°24' E 139°38'0 0.1
2018-Jul-13 03:00N 35°24' E 139°38'0 0.1
2018-Jul-13 02:30N 35°24' E 139°38'1 1.6
2018-Jul-13 02:01N 35°24' E 139°39'2 4.0
2018-Jul-13 01:30N 35°24' E 139°41'4 9.0
2018-Jul-13 01:00N 35°28' E 139°42'1 2.2
2018-Jul-13 00:30N 35°29' E 139°42'0 0.0
2018-Jul-13 00:00N 35°29' E 139°42'0 0.0
2018-Jul-12 23:30N 35°29' E 139°42'0 0.0
2018-Jul-12 23:00N 35°29' E 139°42'0 0.0
2018-Jul-12 22:30N 35°29' E 139°42'0 0.0
2018-Jul-12 22:00N 35°29' E 139°42'0 0.0
2018-Jul-12 21:30N 35°29' E 139°42'0 0.0
2018-Jul-12 21:00N 35°29' E 139°42'0 0.0
2018-Jul-12 20:30N 35°29' E 139°42'0 0.0
2018-Jul-12 20:00N 35°29' E 139°42'0 0.0
2018-Jul-12 19:30N 35°29' E 139°42'0 0.0
2018-Jul-12 19:00N 35°29' E 139°42'0 0.0
2018-Jul-12 18:29N 35°29' E 139°42'0 0.0
2018-Jul-12 18:00N 35°29' E 139°42'0 0.0
2018-Jul-12 17:30N 35°29' E 139°42'0 0.0
2018-Jul-12 17:00N 35°29' E 139°42'0 0.0
2018-Jul-12 16:30N 35°29' E 139°42'0 0.0
2018-Jul-12 16:00N 35°29' E 139°42'0 0.0
2018-Jul-12 15:30N 35°29' E 139°42'0 0.0
2018-Jul-12 15:00N 35°29' E 139°42'0 0.0
2018-Jul-12 14:30N 35°29' E 139°42'0 0.0
2018-Jul-12 13:59N 35°29' E 139°42'0 0.0
2018-Jul-12 13:30N 35°29' E 139°42'0 0.0
2018-Jul-12 13:00N 35°29' E 139°42'0 0.0
2018-Jul-12 12:29N 35°29' E 139°42'0 0.0
2018-Jul-12 12:00N 35°29' E 139°42'0 0.0
2018-Jul-12 11:30N 35°29' E 139°42'0 0.0
2018-Jul-12 11:00N 35°29' E 139°42'0 0.0
2018-Jul-12 10:30N 35°29' E 139°42'0 0.0
2018-Jul-12 10:00N 35°29' E 139°42'0 0.0
2018-Jul-12 09:30N 35°29' E 139°42'0 0.0
2018-Jul-12 09:00N 35°29' E 139°42'0 0.0
2018-Jul-12 08:30N 35°29' E 139°42'0 0.0
2018-Jul-12 08:00N 35°29' E 139°42'0 0.6
2018-Jul-12 07:30N 35°29' E 139°42'510.8
2018-Jul-12 07:00N 35°23' E 139°41'2 3.5
2018-Jul-12 06:30N 35°25' E 139°39'0 0.0
2018-Jul-12 06:00N 35°25' E 139°39'0 0.0
2018-Jul-12 05:30N 35°25' E 139°39'0 0.0
2018-Jul-12 05:00N 35°25' E 139°39'0 0.5
2018-Jul-12 04:30N 35°24' E 139°40'4 7.7
2018-Jul-12 04:00N 35°26' E 139°44'5 9.2
2018-Jul-12 03:29N 35°30' E 139°47'1 1.1
2018-Jul-12 02:58N 35°31' E 139°46'0 0.0
2018-Jul-12 02:29N 35°31' E 139°46'0 0.0
2018-Jul-12 02:00N 35°31' E 139°46'0 0.0
2018-Jul-12 01:30N 35°31' E 139°46'0 0.0
2018-Jul-12 01:00N 35°31' E 139°46'0 0.0
2018-Jul-12 00:30N 35°31' E 139°46'0 0.0
2018-Jul-12 00:00N 35°31' E 139°46'0 0.0
2018-Jul-11 23:30N 35°31' E 139°46'0 0.0
2018-Jul-11 23:00N 35°31' E 139°46'0 0.3
2018-Jul-11 22:30N 35°31' E 139°46'3 6.8
2018-Jul-11 22:00N 35°29' E 139°42'1 1.3
2018-Jul-11 21:29N 35°29' E 139°42'0 0.0
2018-Jul-11 21:00N 35°29' E 139°42'0 0.0
2018-Jul-11 20:30N 35°29' E 139°42'0 0.0
2018-Jul-11 20:00N 35°29' E 139°42'0 0.0
2018-Jul-11 19:30N 35°29' E 139°42'0 0.0
2018-Jul-11 19:00N 35°29' E 139°42'0 0.0
2018-Jul-11 18:30N 35°29' E 139°42'0 0.0
2018-Jul-11 18:00N 35°29' E 139°42'0 0.0
2018-Jul-11 17:30N 35°29' E 139°42'0 0.0
2018-Jul-11 17:00N 35°29' E 139°42'0 0.0
2018-Jul-11 16:30N 35°29' E 139°42'0 0.0
2018-Jul-11 16:00N 35°29' E 139°42'0 0.0
2018-Jul-11 15:30N 35°29' E 139°42'0 0.0
2018-Jul-11 15:00N 35°29' E 139°42'0 0.0
2018-Jul-11 14:30N 35°29' E 139°42'0 0.0
2018-Jul-11 14:00N 35°29' E 139°42'0 0.0
2018-Jul-11 13:29N 35°29' E 139°42'0 0.0
2018-Jul-11 13:00N 35°29' E 139°42'0 0.0
2018-Jul-11 12:30N 35°29' E 139°42'0 0.0
2018-Jul-11 12:00N 35°29' E 139°42'0 0.0
2018-Jul-11 11:30N 35°29' E 139°42'0 0.0
2018-Jul-11 10:58N 35°29' E 139°42'0 0.0
2018-Jul-11 10:30N 35°29' E 139°42'0 0.0
2018-Jul-11 10:00N 35°29' E 139°42'0 0.0
2018-Jul-11 09:30N 35°29' E 139°42'0 0.0
2018-Jul-11 09:00N 35°29' E 139°42'0 0.0
2018-Jul-11 08:30N 35°29' E 139°42'1 1.3
2018-Jul-11 08:00N 35°29' E 139°42'711.7
2018-Jul-11 07:26N 35°32' E 139°50'610.9
2018-Jul-11 06:51N 35°35' E 139°56'6 0.7
2018-Jul-10 22:27N 35°31' E 140°01'4 9.0
2018-Jul-10 21:59N 35°30' E 139°56'611.9
2018-Jul-10 21:30N 35°27' E 139°50'611.5
2018-Jul-10 21:00N 35°27' E 139°43'2 3.6
2018-Jul-10 20:30N 35°29' E 139°42'0 0.0
2018-Jul-10 20:00N 35°29' E 139°42'0 0.0
2018-Jul-10 19:30N 35°29' E 139°42'0 0.0
2018-Jul-10 19:00N 35°29' E 139°42'0 0.0
2018-Jul-10 18:30N 35°29' E 139°42'0 0.0
2018-Jul-10 18:00N 35°29' E 139°42'0 0.0
2018-Jul-10 17:30N 35°29' E 139°42'0 0.0
2018-Jul-10 16:58N 35°29' E 139°42'0 0.0
2018-Jul-10 16:30N 35°29' E 139°42'0 0.0
2018-Jul-10 16:00N 35°29' E 139°42'0 0.0
2018-Jul-10 15:30N 35°29' E 139°42'0 0.0
2018-Jul-10 15:00N 35°29' E 139°42'0 0.0
2018-Jul-10 14:27N 35°29' E 139°42'0 0.0
2018-Jul-10 14:00N 35°29' E 139°42'0 0.0
2018-Jul-10 13:30N 35°29' E 139°42'0 0.0
2018-Jul-10 13:00N 35°29' E 139°42'0 0.0
2018-Jul-10 12:30N 35°29' E 139°42'0 0.0
2018-Jul-10 12:00N 35°29' E 139°42'0 0.0
2018-Jul-10 11:30N 35°29' E 139°42'0 0.0
2018-Jul-10 11:01N 35°29' E 139°42'0 0.0
2018-Jul-10 10:30N 35°29' E 139°42'0 0.0
2018-Jul-10 10:00N 35°29' E 139°42'0 0.0
2018-Jul-10 09:30N 35°29' E 139°42'0 0.0
2018-Jul-10 08:59N 35°29' E 139°42'0 0.0
2018-Jul-10 08:30N 35°29' E 139°42'0 0.0
2018-Jul-10 08:00N 35°29' E 139°42'0 0.0
2018-Jul-10 07:30N 35°29' E 139°42'0 0.0
2018-Jul-10 07:00N 35°29' E 139°42'  
Track history (hours):
 
Tides and Currents Weather Stations Pressure Air Temp Water Temp Dewpoint Dewpoint Depression Visibility Wind Speed Wind Dir Waves Ship Positions

No.8 Myoushou Maru

Last reported at 2018-Jul-20 06:30 UTC. Time now 2018-Jul-20 06:29 UTC.
Position N 35°24' E 139°38'.

Length 71 m; draft 4 m.

Type: Tanker. MMSI: 431000594.

Date/timePositionNaut miles runAvg speedWind from/ knotsBaromVisibWave heightAir tempDewpointWater temp
2018-Jul-20 06:30N 35°24' E 139°38'0 0.0
2018-Jul-20 06:00N 35°24' E 139°38'0 0.0
2018-Jul-20 05:30N 35°24' E 139°38'0 0.0
2018-Jul-20 05:00N 35°24' E 139°38'0 0.1
2018-Jul-20 04:30N 35°24' E 139°38'0 0.3
2018-Jul-20 04:00N 35°24' E 139°38'4 8.8
2018-Jul-20 03:30N 35°23' E 139°43'0 0.5
2018-Jul-20 02:59N 35°24' E 139°44'0 0.2
2018-Jul-20 02:30N 35°23' E 139°44'4 7.0
2018-Jul-20 02:00N 35°24' E 139°40'0 0.0
2018-Jul-20 01:31N 35°24' E 139°40'0 0.0
2018-Jul-20 01:00N 35°24' E 139°40'0 0.0
2018-Jul-20 00:30N 35°24' E 139°40'0 0.0
2018-Jul-20 00:01N 35°24' E 139°40'1 2.5
2018-Jul-19 23:31N 35°24' E 139°41'4 8.7
2018-Jul-19 23:01N 35°26' E 139°45'4 8.7
2018-Jul-19 22:31N 35°29' E 139°49'0 0.2
2018-Jul-19 22:00N 35°29' E 139°49'0 0.0
2018-Jul-19 21:30N 35°29' E 139°49'0 0.1
2018-Jul-19 21:00N 35°29' E 139°49'0 0.0
2018-Jul-19 20:30N 35°29' E 139°49'0 0.0
2018-Jul-19 20:00N 35°29' E 139°49'0 0.0
2018-Jul-19 19:30N 35°29' E 139°49'0 0.0
2018-Jul-19 19:00N 35°29' E 139°49'0 0.0
2018-Jul-19 18:30N 35°29' E 139°49'0 0.0
2018-Jul-19 18:00N 35°29' E 139°49'0 0.1
2018-Jul-19 17:30N 35°29' E 139°49'0 0.0
2018-Jul-19 17:00N 35°29' E 139°49'0 0.0
2018-Jul-19 16:30N 35°29' E 139°49'0 0.0
2018-Jul-19 16:00N 35°29' E 139°49'0 0.0
2018-Jul-19 15:30N 35°29' E 139°49'0 0.0
2018-Jul-19 15:00N 35°29' E 139°49'0 0.0
2018-Jul-19 14:30N 35°29' E 139°49'0 0.0
2018-Jul-19 13:30N 35°29' E 139°49'0 0.0
2018-Jul-19 13:00N 35°29' E 139°49'0 0.0
2018-Jul-19 12:30N 35°29' E 139°49'0 0.0
2018-Jul-19 12:00N 35°29' E 139°49'0 0.1
2018-Jul-19 11:30N 35°29' E 139°49'0 0.1
2018-Jul-19 11:00N 35°29' E 139°49'1 3.0
2018-Jul-19 10:30N 35°30' E 139°48'2 3.2
2018-Jul-19 10:00N 35°31' E 139°46'0 0.0
2018-Jul-19 09:26N 35°31' E 139°46'0 0.0
2018-Jul-19 09:00N 35°31' E 139°46'0 0.0
2018-Jul-19 08:30N 35°31' E 139°46'0 0.0
2018-Jul-19 08:00N 35°31' E 139°46'0 0.0
2018-Jul-19 07:30N 35°31' E 139°46'0 0.0
2018-Jul-19 07:00N 35°31' E 139°46'0 0.0
2018-Jul-19 06:30N 35°31' E 139°46'0 0.0
2018-Jul-19 05:59N 35°31' E 139°46'0 0.0
2018-Jul-19 05:30N 35°31' E 139°46'4 7.1
2018-Jul-19 05:00N 35°27' E 139°45'611.0
2018-Jul-19 04:30N 35°24' E 139°40'1 1.7
2018-Jul-19 04:00N 35°24' E 139°40'0 0.0
2018-Jul-19 03:29N 35°24' E 139°40'0 0.0
2018-Jul-19 03:00N 35°24' E 139°40'0 0.0
2018-Jul-19 02:30N 35°24' E 139°40'0 0.0
2018-Jul-19 02:00N 35°24' E 139°40'0 0.0
2018-Jul-19 01:30N 35°24' E 139°40'1 1.3
2018-Jul-19 01:00N 35°24' E 139°40'4 7.2
2018-Jul-19 00:30N 35°26' E 139°43'3 5.6
2018-Jul-18 23:59N 35°29' E 139°42'0 0.0
2018-Jul-18 23:30N 35°29' E 139°42'0 0.0
2018-Jul-18 23:00N 35°29' E 139°42'0 0.0
2018-Jul-18 22:30N 35°29' E 139°42'0 0.0
2018-Jul-18 22:00N 35°29' E 139°42'0 0.0
2018-Jul-18 21:30N 35°29' E 139°42'0 0.0
2018-Jul-18 20:57N 35°29' E 139°42'0 0.0
2018-Jul-18 20:30N 35°29' E 139°42'0 0.0
2018-Jul-18 20:00N 35°29' E 139°42'0 0.0
2018-Jul-18 19:30N 35°29' E 139°42'0 0.0
2018-Jul-18 19:00N 35°29' E 139°42'0 0.0
2018-Jul-18 18:30N 35°29' E 139°42'0 0.0
2018-Jul-18 18:00N 35°29' E 139°42'0 0.0
2018-Jul-18 17:30N 35°29' E 139°42'0 0.0
2018-Jul-18 17:00N 35°29' E 139°42'0 0.0
2018-Jul-18 16:29N 35°29' E 139°42'0 0.0
2018-Jul-18 16:00N 35°29' E 139°42'0 0.0
2018-Jul-18 15:30N 35°29' E 139°42'0 0.0
2018-Jul-18 14:59N 35°29' E 139°42'0 0.0
2018-Jul-18 14:29N 35°29' E 139°42'0 0.0
2018-Jul-18 13:30N 35°29' E 139°42'0 0.0
2018-Jul-18 13:00N 35°29' E 139°42'0 0.0
2018-Jul-18 12:30N 35°29' E 139°42'0 0.0
2018-Jul-18 12:00N 35°29' E 139°42'0 0.0
2018-Jul-18 11:29N 35°29' E 139°42'0 0.0
2018-Jul-18 10:30N 35°29' E 139°42'0 0.0
2018-Jul-18 09:58N 35°29' E 139°42'0 0.0
2018-Jul-18 09:30N 35°29' E 139°42'0 0.0
2018-Jul-18 09:00N 35°29' E 139°42'0 0.3
2018-Jul-18 08:31N 35°29' E 139°42'4 8.1
2018-Jul-18 08:01N 35°31' E 139°46'0 0.0
2018-Jul-18 07:30N 35°31' E 139°46'0 0.0
2018-Jul-18 07:00N 35°31' E 139°46'0 0.0
2018-Jul-18 06:30N 35°31' E 139°46'0 0.0
2018-Jul-18 06:00N 35°31' E 139°46'0 0.0
2018-Jul-18 05:29N 35°31' E 139°46'0 0.0
2018-Jul-18 04:59N 35°31' E 139°46'0 0.0
2018-Jul-18 04:30N 35°31' E 139°46'0 0.0
2018-Jul-18 04:00N 35°31' E 139°46'0 0.0
2018-Jul-18 03:30N 35°31' E 139°46'0 0.0
2018-Jul-18 03:00N 35°31' E 139°46'3 5.6
2018-Jul-18 02:30N 35°30' E 139°49'1 1.4
2018-Jul-18 01:54N 35°30' E 139°50'0 0.0
2018-Jul-18 01:30N 35°30' E 139°50'2 3.1
2018-Jul-18 01:00N 35°31' E 139°52'7 1.8
2018-Jul-17 21:05N 35°37' E 139°57'110.7
2018-Jul-17 21:00N 35°37' E 139°56'1 0.1
2018-Jul-17 06:36N 35°36' E 139°55'510.9
2018-Jul-17 06:07N 35°32' E 139°51'211.4
2018-Jul-17 05:59N 35°31' E 139°50'3 6.5
2018-Jul-17 05:30N 35°31' E 139°46'0 0.0
2018-Jul-17 05:00N 35°31' E 139°46'0 0.0
2018-Jul-17 04:29N 35°31' E 139°46'0 0.0
2018-Jul-17 04:00N 35°31' E 139°46'0 0.0
2018-Jul-17 03:11N 35°31' E 139°46'0 0.0
2018-Jul-17 02:46N 35°31' E 139°46'0 0.0
2018-Jul-17 02:27N 35°31' E 139°46'0 0.0
2018-Jul-17 02:00N 35°31' E 139°46'3 6.7
2018-Jul-17 01:30N 35°31' E 139°50'611.6
2018-Jul-17 00:59N 35°35' E 139°56'2 0.6
2018-Jul-16 21:23N 35°37' E 139°57'2 0.1
2018-Jul-16 05:13N 35°36' E 139°55'8 2.1
2018-Jul-16 01:13N 35°31' E 140°03'0 0.0
2018-Jul-16 00:58N 35°31' E 140°03'2 1.4
2018-Jul-15 23:50N 35°31' E 140°01'3 8.2
2018-Jul-15 23:26N 35°30' E 139°57'511.9
2018-Jul-15 23:00N 35°28' E 139°51'612.1
2018-Jul-15 22:30N 35°27' E 139°44'3 6.2
2018-Jul-15 22:00N 35°29' E 139°42'0 0.0
2018-Jul-15 21:27N 35°29' E 139°42'0 0.0
2018-Jul-15 21:00N 35°29' E 139°42'0 0.0
2018-Jul-15 20:30N 35°29' E 139°42'0 0.0
2018-Jul-15 20:00N 35°29' E 139°42'0 0.0
2018-Jul-15 19:30N 35°29' E 139°42'0 0.0
2018-Jul-15 19:00N 35°29' E 139°42'0 0.0
2018-Jul-15 18:30N 35°29' E 139°42'0 0.0
2018-Jul-15 18:00N 35°29' E 139°42'0 0.0
2018-Jul-15 17:30N 35°29' E 139°42'0 0.0
2018-Jul-15 17:00N 35°29' E 139°42'0 0.0
2018-Jul-15 16:30N 35°29' E 139°42'0 0.0
2018-Jul-15 16:01N 35°29' E 139°42'0 0.0
2018-Jul-15 15:31N 35°29' E 139°42'0 0.0
2018-Jul-15 15:00N 35°29' E 139°42'0 0.0
2018-Jul-15 14:30N 35°29' E 139°42'0 0.0
2018-Jul-15 14:00N 35°29' E 139°42'0 0.0
2018-Jul-15 13:29N 35°29' E 139°42'0 0.0
2018-Jul-15 13:01N 35°29' E 139°42'0 0.0
2018-Jul-15 12:30N 35°29' E 139°42'0 0.0
2018-Jul-15 12:00N 35°29' E 139°42'0 0.0
2018-Jul-15 11:30N 35°29' E 139°42'0 0.0
2018-Jul-15 11:00N 35°29' E 139°42'0 0.0
2018-Jul-15 10:29N 35°29' E 139°42'0 0.0
2018-Jul-15 10:01N 35°29' E 139°42'0 0.0
2018-Jul-15 09:30N 35°29' E 139°42'0 0.0
2018-Jul-15 09:00N 35°29' E 139°42'0 0.0
2018-Jul-15 08:29N 35°29' E 139°42'0 0.0
2018-Jul-15 08:00N 35°29' E 139°42'0 0.0
2018-Jul-15 07:30N 35°29' E 139°42'0 0.0
2018-Jul-15 07:01N 35°29' E 139°42'0 0.0
2018-Jul-15 06:30N 35°29' E 139°42'0 0.0
2018-Jul-15 06:00N 35°29' E 139°42'0 0.0
2018-Jul-15 05:29N 35°29' E 139°42'0 0.0
2018-Jul-15 05:00N 35°29' E 139°42'0 0.0
2018-Jul-15 04:30N 35°29' E 139°42'0 0.0
2018-Jul-15 04:01N 35°29' E 139°42'0 0.0
2018-Jul-15 03:30N 35°29' E 139°42'0 0.0
2018-Jul-15 02:57N 35°29' E 139°42'0 0.0
2018-Jul-15 02:30N 35°29' E 139°42'2 4.6
2018-Jul-15 02:00N 35°27' E 139°43'612.5
2018-Jul-15 01:29N 35°31' E 139°49'612.2
2018-Jul-15 00:59N 35°36' E 139°55'2 0.6
2018-Jul-14 21:31N 35°37' E 139°57'010.6
2018-Jul-14 21:29N 35°37' E 139°56'3 0.3
2018-Jul-14 08:54N 35°34' E 139°53'411.0
2018-Jul-14 08:30N 35°31' E 139°50'3 6.2
2018-Jul-14 08:00N 35°31' E 139°46'0 0.0
2018-Jul-14 07:30N 35°31' E 139°46'0 0.0
2018-Jul-14 07:00N 35°31' E 139°46'0 0.1
2018-Jul-14 06:30N 35°31' E 139°46'0 0.0
2018-Jul-14 06:00N 35°31' E 139°46'0 0.1
2018-Jul-14 05:30N 35°31' E 139°46'0 0.1
2018-Jul-14 05:00N 35°31' E 139°46'2 3.6
2018-Jul-14 04:30N 35°30' E 139°48'611.9
2018-Jul-14 04:00N 35°33' E 139°54'2 0.3
2018-Jul-13 22:53N 35°32' E 139°53'4 9.9
2018-Jul-13 22:30N 35°30' E 139°49'510.6
2018-Jul-13 22:00N 35°27' E 139°44'3 6.3
2018-Jul-13 21:30N 35°29' E 139°42'0 0.1
2018-Jul-13 21:00N 35°29' E 139°42'0 0.0
2018-Jul-13 20:29N 35°29' E 139°42'0 0.0
2018-Jul-13 19:56N 35°29' E 139°42'0 0.0
2018-Jul-13 19:26N 35°29' E 139°42'0 0.0
2018-Jul-13 19:00N 35°29' E 139°42'0 0.0
2018-Jul-13 18:30N 35°29' E 139°42'0 0.0
2018-Jul-13 18:00N 35°29' E 139°42'0 0.0
2018-Jul-13 17:30N 35°29' E 139°42'0 0.0
2018-Jul-13 17:00N 35°29' E 139°42'0 0.0
2018-Jul-13 16:27N 35°29' E 139°42'0 0.0
2018-Jul-13 16:00N 35°29' E 139°42'0 0.0
2018-Jul-13 15:28N 35°29' E 139°42'0 0.0
2018-Jul-13 14:59N 35°29' E 139°42'0 0.0
2018-Jul-13 14:00N 35°29' E 139°42'0 0.0
2018-Jul-13 13:30N 35°29' E 139°42'0 0.0
2018-Jul-13 13:00N 35°29' E 139°42'0 0.0
2018-Jul-13 12:28N 35°29' E 139°42'0 0.0
2018-Jul-13 12:00N 35°29' E 139°42'0 0.0
2018-Jul-13 11:29N 35°29' E 139°42'0 0.0
2018-Jul-13 11:00N 35°29' E 139°42'0 0.0
2018-Jul-13 10:30N 35°29' E 139°42'0 0.0
2018-Jul-13 09:58N 35°29' E 139°42'0 0.0
2018-Jul-13 09:29N 35°29' E 139°42'0 0.0
2018-Jul-13 08:59N 35°29' E 139°42'0 0.0
2018-Jul-13 08:29N 35°29' E 139°42'0 0.0
2018-Jul-13 07:52N 35°29' E 139°42'0 0.0
2018-Jul-13 07:30N 35°29' E 139°42'0 0.0
2018-Jul-13 07:00N 35°29' E 139°42'0 0.0
2018-Jul-13 06:30N 35°29' E 139°42'1 2.9
2018-Jul-13 06:00N 35°28' E 139°42'4 8.7
2018-Jul-13 05:30N 35°24' E 139°40'2 4.0
2018-Jul-13 05:00N 35°24' E 139°38'0 0.0
2018-Jul-13 04:30N 35°24' E 139°38'0 0.0
2018-Jul-13 04:00N 35°24' E 139°38'0 0.0
2018-Jul-13 03:30N 35°24' E 139°38'0 0.1
2018-Jul-13 03:00N 35°24' E 139°38'0 0.1
2018-Jul-13 02:30N 35°24' E 139°38'1 1.6
2018-Jul-13 02:01N 35°24' E 139°39'2 4.0
2018-Jul-13 01:30N 35°24' E 139°41'4 9.0
2018-Jul-13 01:00N 35°28' E 139°42'1 2.2
2018-Jul-13 00:30N 35°29' E 139°42'0 0.0
2018-Jul-13 00:00N 35°29' E 139°42'0 0.0
2018-Jul-12 23:30N 35°29' E 139°42'0 0.0
2018-Jul-12 23:00N 35°29' E 139°42'0 0.0
2018-Jul-12 22:30N 35°29' E 139°42'0 0.0
2018-Jul-12 22:00N 35°29' E 139°42'0 0.0
2018-Jul-12 21:30N 35°29' E 139°42'0 0.0
2018-Jul-12 21:00N 35°29' E 139°42'0 0.0
2018-Jul-12 20:30N 35°29' E 139°42'0 0.0
2018-Jul-12 20:00N 35°29' E 139°42'0 0.0
2018-Jul-12 19:30N 35°29' E 139°42'0 0.0
2018-Jul-12 19:00N 35°29' E 139°42'0 0.0
2018-Jul-12 18:29N 35°29' E 139°42'0 0.0
2018-Jul-12 18:00N 35°29' E 139°42'0 0.0
2018-Jul-12 17:30N 35°29' E 139°42'0 0.0
2018-Jul-12 17:00N 35°29' E 139°42'0 0.0
2018-Jul-12 16:30N 35°29' E 139°42'0 0.0
2018-Jul-12 16:00N 35°29' E 139°42'0 0.0
2018-Jul-12 15:30N 35°29' E 139°42'0 0.0
2018-Jul-12 15:00N 35°29' E 139°42'0 0.0
2018-Jul-12 14:30N 35°29' E 139°42'0 0.0
2018-Jul-12 13:59N 35°29' E 139°42'0 0.0
2018-Jul-12 13:30N 35°29' E 139°42'0 0.0
2018-Jul-12 13:00N 35°29' E 139°42'0 0.0
2018-Jul-12 12:29N 35°29' E 139°42'0 0.0
2018-Jul-12 12:00N 35°29' E 139°42'0 0.0
2018-Jul-12 11:30N 35°29' E 139°42'0 0.0
2018-Jul-12 11:00N 35°29' E 139°42'0 0.0
2018-Jul-12 10:30N 35°29' E 139°42'0 0.0
2018-Jul-12 10:00N 35°29' E 139°42'0 0.0
2018-Jul-12 09:30N 35°29' E 139°42'0 0.0
2018-Jul-12 09:00N 35°29' E 139°42'0 0.0
2018-Jul-12 08:30N 35°29' E 139°42'0 0.0
2018-Jul-12 08:00N 35°29' E 139°42'0 0.6
2018-Jul-12 07:30N 35°29' E 139°42'510.8
2018-Jul-12 07:00N 35°23' E 139°41'2 3.5
2018-Jul-12 06:30N 35°25' E 139°39'0 0.0
2018-Jul-12 06:00N 35°25' E 139°39'0 0.0
2018-Jul-12 05:30N 35°25' E 139°39'0 0.0
2018-Jul-12 05:00N 35°25' E 139°39'0 0.5
2018-Jul-12 04:30N 35°24' E 139°40'4 7.7
2018-Jul-12 04:00N 35°26' E 139°44'5 9.2
2018-Jul-12 03:29N 35°30' E 139°47'1 1.1
2018-Jul-12 02:58N 35°31' E 139°46'0 0.0
2018-Jul-12 02:29N 35°31' E 139°46'0 0.0
2018-Jul-12 02:00N 35°31' E 139°46'0 0.0
2018-Jul-12 01:30N 35°31' E 139°46'0 0.0
2018-Jul-12 01:00N 35°31' E 139°46'0 0.0
2018-Jul-12 00:30N 35°31' E 139°46'0 0.0
2018-Jul-12 00:00N 35°31' E 139°46'0 0.0
2018-Jul-11 23:30N 35°31' E 139°46'0 0.0
2018-Jul-11 23:00N 35°31' E 139°46'0 0.3
2018-Jul-11 22:30N 35°31' E 139°46'3 6.8
2018-Jul-11 22:00N 35°29' E 139°42'1 1.3
2018-Jul-11 21:29N 35°29' E 139°42'0 0.0
2018-Jul-11 21:00N 35°29' E 139°42'0 0.0
2018-Jul-11 20:30N 35°29' E 139°42'0 0.0
2018-Jul-11 20:00N 35°29' E 139°42'0 0.0
2018-Jul-11 19:30N 35°29' E 139°42'0 0.0
2018-Jul-11 19:00N 35°29' E 139°42'0 0.0
2018-Jul-11 18:30N 35°29' E 139°42'0 0.0
2018-Jul-11 18:00N 35°29' E 139°42'0 0.0
2018-Jul-11 17:30N 35°29' E 139°42'0 0.0
2018-Jul-11 17:00N 35°29' E 139°42'0 0.0
2018-Jul-11 16:30N 35°29' E 139°42'0 0.0
2018-Jul-11 16:00N 35°29' E 139°42'0 0.0
2018-Jul-11 15:30N 35°29' E 139°42'0 0.0
2018-Jul-11 15:00N 35°29' E 139°42'0 0.0
2018-Jul-11 14:30N 35°29' E 139°42'0 0.0
2018-Jul-11 14:00N 35°29' E 139°42'0 0.0
2018-Jul-11 13:29N 35°29' E 139°42'0 0.0
2018-Jul-11 13:00N 35°29' E 139°42'0 0.0
2018-Jul-11 12:30N 35°29' E 139°42'0 0.0
2018-Jul-11 12:00N 35°29' E 139°42'0 0.0
2018-Jul-11 11:30N 35°29' E 139°42'0 0.0
2018-Jul-11 10:58N 35°29' E 139°42'0 0.0
2018-Jul-11 10:30N 35°29' E 139°42'0 0.0
2018-Jul-11 10:00N 35°29' E 139°42'0 0.0
2018-Jul-11 09:30N 35°29' E 139°42'0 0.0
2018-Jul-11 09:00N 35°29' E 139°42'0 0.0
2018-Jul-11 08:30N 35°29' E 139°42'1 1.3
2018-Jul-11 08:00N 35°29' E 139°42'711.7
2018-Jul-11 07:26N 35°32' E 139°50'610.9
2018-Jul-11 06:51N 35°35' E 139°56'6 0.7
2018-Jul-10 22:27N 35°31' E 140°01'4 9.0
2018-Jul-10 21:59N 35°30' E 139°56'611.9
2018-Jul-10 21:30N 35°27' E 139°50'611.5
2018-Jul-10 21:00N 35°27' E 139°43'2 3.6
2018-Jul-10 20:30N 35°29' E 139°42'0 0.0
2018-Jul-10 20:00N 35°29' E 139°42'0 0.0
2018-Jul-10 19:30N 35°29' E 139°42'0 0.0
2018-Jul-10 19:00N 35°29' E 139°42'0 0.0
2018-Jul-10 18:30N 35°29' E 139°42'0 0.0
2018-Jul-10 18:00N 35°29' E 139°42'0 0.0
2018-Jul-10 17:30N 35°29' E 139°42'0 0.0
2018-Jul-10 16:58N 35°29' E 139°42'0 0.0
2018-Jul-10 16:30N 35°29' E 139°42'0 0.0
2018-Jul-10 16:00N 35°29' E 139°42'0 0.0
2018-Jul-10 15:30N 35°29' E 139°42'0 0.0
2018-Jul-10 15:00N 35°29' E 139°42'0 0.0
2018-Jul-10 14:27N 35°29' E 139°42'0 0.0
2018-Jul-10 14:00N 35°29' E 139°42'0 0.0
2018-Jul-10 13:30N 35°29' E 139°42'0 0.0
2018-Jul-10 13:00N 35°29' E 139°42'0 0.0
2018-Jul-10 12:30N 35°29' E 139°42'0 0.0
2018-Jul-10 12:00N 35°29' E 139°42'0 0.0
2018-Jul-10 11:30N 35°29' E 139°42'0 0.0
2018-Jul-10 11:01N 35°29' E 139°42'0 0.0
2018-Jul-10 10:30N 35°29' E 139°42'0 0.0
2018-Jul-10 10:00N 35°29' E 139°42'0 0.0
2018-Jul-10 09:30N 35°29' E 139°42'0 0.0
2018-Jul-10 08:59N 35°29' E 139°42'0 0.0
2018-Jul-10 08:30N 35°29' E 139°42'0 0.0
2018-Jul-10 08:00N 35°29' E 139°42'0 0.0
2018-Jul-10 07:30N 35°29' E 139°42'0 0.0
2018-Jul-10 07:00N 35°29' E 139°42'  

Dump ship's entire track history